Time;durP1;ratioP1;P1;durP2;ratioP2;P2;SDS_P1;SDS_P2;PMS_P1;PMS_P2;Temp;Humidity;BMP_temperature;BMP_pressure;BME280_temperature;BME280_humidity;BME280_pressure;Samples;Min_cycle;Max_cycle;Signal;HPM_P1;HPM_P2
2023/10/08 00:02:03;;;;;;;8.60;6.30;;;;;;;15.98;54.46;97089.38;5008081;28;20466;-69
2023/10/08 00:04:29;;;;;;;8.10;5.47;;;;;;;16.03;54.41;97092.59;5007716;28;20556;-70
2023/10/08 00:06:54;;;;;;;8.33;6.60;;;;;;;15.95;54.23;97089.53;5007583;28;20176;-68
2023/10/08 00:09:20;;;;;;;11.63;6.23;;;;;;;15.93;54.39;97086.13;5007057;28;20246;-69
2023/10/08 00:11:54;;;;;;;8.43;5.87;;;;;;;15.93;53.98;97088.75;5006993;28;20192;-68
2023/10/08 00:14:21;;;;;;;6.60;5.10;;;;;;;15.96;53.96;97086.78;5007557;28;20411;-70
2023/10/08 00:16:49;;;;;;;7.70;5.03;;;;;;;15.97;53.67;97069.09;5007967;28;20541;-69
2023/10/08 00:19:17;;;;;;;9.70;5.70;;;;;;;15.86;54.23;97075.00;5007535;28;20431;-70
2023/10/08 00:21:45;;;;;;;10.07;5.63;;;;;;;15.82;54.49;97076.09;5007817;28;20525;-70
2023/10/08 00:24:10;;;;;;;9.70;5.70;;;;;;;15.84;54.67;97068.94;5007676;28;20411;-69
2023/10/08 00:26:39;;;;;;;7.23;5.13;;;;;;;15.82;54.49;97070.81;5007280;28;20422;-69
2023/10/08 00:29:15;;;;;;;7.80;6.70;;;;;;;15.93;54.19;97076.38;5007145;28;20699;-70
2023/10/08 00:31:44;;;;;;;9.97;6.67;;;;;;;15.90;54.20;97076.56;5007301;28;20958;-69
2023/10/08 00:34:13;;;;;;;7.03;5.70;;;;;;;15.77;54.83;97075.50;5007271;28;20453;-69
2023/10/08 00:36:44;;;;;;;9.40;6.00;;;;;;;15.74;55.12;97071.22;5006906;28;20415;-69
2023/10/08 00:39:14;;;;;;;16.93;9.20;;;;;;;15.76;55.24;97064.06;5007005;28;20412;-70
2023/10/08 00:41:44;;;;;;;7.83;5.70;;;;;;;15.72;55.21;97062.50;5006950;28;20874;-69
2023/10/08 00:44:16;;;;;;;9.07;7.10;;;;;;;15.70;55.52;97055.56;5006946;28;20442;-70
2023/10/08 00:46:47;;;;;;;9.63;6.20;;;;;;;15.69;55.33;97057.38;5007203;28;20403;-70
2023/10/08 00:52:00;;;;;;;9.20;6.43;;;;;;;15.56;55.61;97041.28;5006851;28;21023;-69
2023/10/08 00:54:28;;;;;;;12.37;6.47;;;;;;;15.64;55.73;97043.53;5006805;28;20446;-70
2023/10/08 00:56:57;;;;;;;9.67;6.30;;;;;;;15.75;55.21;97045.59;5006850;28;20415;-70
2023/10/08 00:59:24;;;;;;;12.37;6.40;;;;;;;15.80;55.06;97039.16;5006710;28;20936;-69
2023/10/08 01:01:51;;;;;;;8.50;5.90;;;;;;;15.74;55.32;97041.28;5006996;28;20435;-69
2023/10/08 01:04:22;;;;;;;10.93;6.10;;;;;;;15.79;55.05;97050.66;5006890;28;20493;-70
2023/10/08 01:06:54;;;;;;;11.03;6.80;;;;;;;15.70;55.44;97060.84;5006621;28;20426;-68
2023/10/08 01:09:22;;;;;;;10.10;6.03;;;;;;;15.67;55.60;97059.22;5006411;28;20411;-70
2023/10/08 01:12:35;;;;;;;10.73;6.20;;;;;;;15.70;55.69;97053.78;5007065;28;20476;-68
2023/10/08 01:15:23;;;;;;;7.93;5.87;;;;;;;15.66;55.56;97046.91;5006354;28;20511;-68
2023/10/08 01:17:58;;;;;;;9.47;6.30;;;;;;;15.67;55.93;97056.59;5006939;28;20489;-70
2023/10/08 01:20:37;;;;;;;7.10;5.63;;;;;;;15.68;55.63;97053.00;5006738;28;20486;-68
2023/10/08 01:23:12;;;;;;;10.23;7.23;;;;;;;15.65;55.46;97053.16;5006877;28;21008;-69
2023/10/08 01:25:42;;;;;;;7.17;5.90;;;;;;;15.66;55.29;97046.91;5007028;28;20406;-69
2023/10/08 01:28:28;;;;;;;8.93;5.50;;;;;;;15.71;55.16;97044.94;5006814;28;20407;-69
2023/10/08 01:30:54;;;;;;;12.97;6.80;;;;;;;15.60;55.67;97041.97;5006811;28;20746;-69
2023/10/08 01:33:22;;;;;;;8.70;5.93;;;;;;;15.61;55.40;97047.19;5007000;28;20411;-69
2023/10/08 01:35:50;;;;;;;9.80;6.40;;;;;;;15.64;55.29;97046.19;5006695;28;20418;-70
2023/10/08 01:38:22;;;;;;;9.00;6.33;;;;;;;15.58;55.58;97042.06;5006656;28;20415;-69
2023/10/08 01:40:50;;;;;;;9.17;6.50;;;;;;;15.62;55.55;97040.09;5006594;28;20510;-70
2023/10/08 01:43:17;;;;;;;7.70;5.80;;;;;;;15.60;55.43;97042.81;5006715;28;20517;-68
2023/10/08 01:45:43;;;;;;;14.43;7.00;;;;;;;15.65;55.48;97038.13;5006714;28;20473;-69
2023/10/08 01:48:11;;;;;;;13.37;6.30;;;;;;;15.54;55.58;97037.00;5008440;28;20836;-68
2023/10/08 01:50:37;;;;;;;7.70;6.37;;;;;;;15.59;55.61;97034.97;5009754;28;20203;-68
2023/10/08 01:53:05;;;;;;;11.63;6.53;;;;;;;15.56;55.13;97045.72;5009981;28;20409;-68
2023/10/08 01:55:44;;;;;;;17.20;6.10;;;;;;;15.49;54.83;97041.69;5009893;28;20418;-68
2023/10/08 01:58:12;;;;;;;12.23;5.73;;;;;;;15.55;54.92;97033.44;5009898;28;20493;-70
2023/10/08 02:00:42;;;;;;;14.27;5.80;;;;;;;15.64;54.32;97036.44;5009306;28;20455;-68
2023/10/08 02:03:07;;;;;;;17.53;6.53;;;;;;;15.50;54.82;97028.41;5009939;28;20965;-71
2023/10/08 02:05:34;;;;;;;10.57;6.23;;;;;;;15.46;54.86;97024.19;5009767;28;20415;-68
2023/10/08 02:07:59;;;;;;;10.30;5.80;;;;;;;15.51;55.40;97029.25;5009639;28;20183;-69
2023/10/08 02:10:25;;;;;;;14.60;6.70;;;;;;;15.51;55.34;97027.44;5009096;28;20512;-67
2023/10/08 02:12:50;;;;;;;9.63;6.60;;;;;;;15.61;55.29;97027.78;5009485;28;20183;-70
2023/10/08 02:15:15;;;;;;;10.50;6.50;;;;;;;15.55;55.50;97030.78;5009681;28;20295;-68
2023/10/08 02:17:43;;;;;;;7.87;6.00;;;;;;;15.49;55.82;97031.97;5009469;28;20180;-70
2023/10/08 02:20:09;;;;;;;10.83;6.60;;;;;;;15.48;56.36;97029.41;5009454;28;20202;-70
2023/10/08 02:22:34;;;;;;;8.30;6.13;;;;;;;15.46;56.53;97025.03;5009225;28;20466;-69
2023/10/08 02:25:03;;;;;;;7.60;6.00;;;;;;;15.57;56.28;97028.91;5009492;28;20215;-69
2023/10/08 02:27:28;;;;;;;8.90;7.10;;;;;;;15.49;56.75;97033.75;5009346;28;20207;-69
2023/10/08 02:29:54;;;;;;;10.97;7.23;;;;;;;15.44;56.88;97041.94;5009189;28;20573;-70
2023/10/08 02:32:22;;;;;;;10.60;6.93;;;;;;;15.42;57.06;97039.34;5009540;28;20527;-70
2023/10/08 02:34:48;;;;;;;15.67;7.17;;;;;;;15.45;57.06;97038.38;5009560;28;20179;-68
2023/10/08 02:37:15;;;;;;;11.00;6.43;;;;;;;15.46;57.43;97046.19;5009580;28;21198;-68
2023/10/08 02:39:40;;;;;;;9.57;7.33;;;;;;;15.48;57.43;97037.34;5009079;28;20426;-70
2023/10/08 02:42:10;;;;;;;12.33;6.80;;;;;;;15.52;57.66;97028.28;5009524;28;20450;-68
2023/10/08 02:44:41;;;;;;;12.17;7.07;;;;;;;15.43;58.00;97032.31;5009217;28;20180;-69
2023/10/08 02:47:08;;;;;;;9.57;6.83;;;;;;;15.39;58.13;97034.25;5009252;28;20415;-71
2023/10/08 02:49:34;;;;;;;10.57;7.33;;;;;;;15.41;58.10;97039.47;5008690;28;20503;-69
2023/10/08 02:52:00;;;;;;;8.27;7.30;;;;;;;15.40;58.04;97035.97;5009108;28;20407;-68
2023/10/08 02:54:31;;;;;;;7.63;6.83;;;;;;;15.42;58.14;97033.22;5008891;28;20421;-69
2023/10/08 02:57:00;;;;;;;8.90;7.30;;;;;;;15.36;58.59;97025.63;5008869;28;20184;-69
2023/10/08 02:59:38;;;;;;;8.13;7.00;;;;;;;15.44;58.45;97036.66;5008461;28;20514;-69
2023/10/08 03:02:04;;;;;;;10.33;7.30;;;;;;;15.37;58.31;97028.16;5008802;28;20472;-68
2023/10/08 03:04:29;;;;;;;10.07;7.80;;;;;;;15.39;58.52;97034.25;5009095;28;20812;-69
2023/10/08 03:06:56;;;;;;;8.50;7.00;;;;;;;15.34;58.47;97036.28;5008647;28;20176;-69
2023/10/08 03:09:26;;;;;;;8.90;6.97;;;;;;;15.28;58.32;97030.44;5008333;28;21157;-69
2023/10/08 03:11:52;;;;;;;9.37;6.50;;;;;;;15.28;58.35;97027.81;5008826;28;20210;-70
2023/10/08 03:14:21;;;;;;;11.23;7.07;;;;;;;15.27;58.09;97020.81;5008862;28;20410;-70
2023/10/08 03:16:51;;;;;;;8.97;7.00;;;;;;;15.33;58.18;97021.38;5008282;28;20407;-72
2023/10/08 03:19:20;;;;;;;11.57;7.27;;;;;;;15.30;58.27;97029.44;5008107;28;20423;-69
2023/10/08 03:21:57;;;;;;;9.50;7.07;;;;;;;15.25;58.43;97020.91;5008248;28;20439;-70
2023/10/08 03:24:29;;;;;;;20.07;7.47;;;;;;;15.21;58.57;97014.94;5008939;28;20756;-69
2023/10/08 03:29:54;;;;;;;8.83;7.03;;;;;;;15.20;58.66;97020.28;4998877;28;20457;-69
2023/10/08 03:32:26;;;;;;;7.00;6.17;;;;;;;15.25;58.80;97010.31;5008552;28;20407;-70
2023/10/08 03:34:54;;;;;;;9.70;7.43;;;;;;;15.16;58.96;97019.56;5008194;28;20419;-69
2023/10/08 03:37:29;;;;;;;9.23;7.27;;;;;;;15.08;59.36;97020.94;5008118;28;20492;-70
2023/10/08 03:40:07;;;;;;;11.67;6.87;;;;;;;15.18;59.28;97019.50;5007710;28;20439;-69
2023/10/08 03:42:40;;;;;;;15.87;7.90;;;;;;;15.12;59.46;97022.47;5008082;28;20481;-69
2023/10/08 03:45:16;;;;;;;9.23;7.40;;;;;;;15.14;59.60;97026.75;5008065;28;20628;-69
2023/10/08 03:47:46;;;;;;;11.80;8.10;;;;;;;15.07;59.20;97021.84;5007956;28;20415;-72
2023/10/08 03:50:16;;;;;;;11.50;6.90;;;;;;;15.12;59.11;97020.69;5007640;28;20431;-69
2023/10/08 03:52:43;;;;;;;10.13;7.07;;;;;;;15.00;59.22;97019.53;5007864;28;20447;-69
2023/10/08 03:55:26;;;;;;;8.90;6.60;;;;;;;15.01;59.15;97013.31;5008027;28;20423;-69
2023/10/08 03:57:56;;;;;;;10.50;6.90;;;;;;;15.04;59.09;97018.44;5007952;28;20423;-69
2023/10/08 04:00:28;;;;;;;13.20;7.93;;;;;;;15.07;58.82;97011.28;5007507;28;20447;-69
2023/10/08 04:03:01;;;;;;;10.20;8.07;;;;;;;15.10;58.41;97016.44;5007856;28;21012;-67
2023/10/08 04:05:32;;;;;;;9.77;6.40;;;;;;;14.95;59.03;97018.94;5007687;28;20796;-69
2023/10/08 04:13:09;;;;;;;11.30;6.97;;;;;;;15.10;59.06;97016.44;5007931;28;20484;-70
2023/10/08 04:15:40;;;;;;;9.27;6.87;;;;;;;15.15;58.86;97017.88;5007716;28;20490;-69
2023/10/08 04:18:06;;;;;;;13.30;7.70;;;;;;;15.02;59.63;97020.31;5007690;28;20415;-69
2023/10/08 04:23:20;;;;;;;9.17;7.10;;;;;;;15.03;59.24;97016.72;5007515;28;20462;-69
2023/10/08 04:25:51;;;;;;;9.57;7.17;;;;;;;15.02;58.92;97022.09;5007468;28;20403;-68
2023/10/08 04:28:20;;;;;;;8.30;7.03;;;;;;;14.99;58.79;97025.75;5007851;28;20419;-69
2023/10/08 04:30:47;;;;;;;13.43;7.10;;;;;;;15.06;58.43;97028.09;5007802;28;20435;-70
2023/10/08 04:33:14;;;;;;;7.73;6.20;;;;;;;15.01;58.63;97023.03;5007995;28;20415;-70
2023/10/08 04:36:01;;;;;;;8.33;6.30;;;;;;;14.93;58.56;97020.78;5007981;28;20411;-70
2023/10/08 04:38:28;;;;;;;10.20;6.90;;;;;;;14.97;58.71;97022.31;5008124;28;20414;-69
2023/10/08 04:40:55;;;;;;;12.73;7.70;;;;;;;14.90;58.81;97025.38;5008645;28;20427;-69
2023/10/08 04:43:25;;;;;;;10.87;7.33;;;;;;;14.91;59.01;97022.66;5007971;28;20458;-70
2023/10/08 04:45:56;;;;;;;12.33;7.63;;;;;;;14.92;59.16;97027.00;5008318;28;20456;-70
2023/10/08 04:48:29;;;;;;;7.90;7.00;;;;;;;14.93;59.08;97018.16;5008333;28;21091;-70
2023/10/08 04:51:01;;;;;;;9.10;7.40;;;;;;;14.94;59.05;97019.00;5007279;28;20442;-70
2023/10/08 04:53:32;;;;;;;15.00;8.90;;;;;;;14.89;59.46;97015.75;5007598;28;20411;-70
2023/10/08 04:56:13;;;;;;;16.13;7.53;;;;;;;14.86;59.50;97011.47;5007381;28;20411;-70
2023/10/08 04:58:40;;;;;;;14.13;8.20;;;;;;;14.86;59.58;97008.84;5006824;28;20422;-69
2023/10/08 05:01:29;;;;;;;13.10;7.60;;;;;;;14.86;59.66;97016.75;5007079;28;20434;-69
2023/10/08 05:04:07;;;;;;;11.97;8.90;;;;;;;14.88;59.66;97014.00;5007481;28;20458;-68
2023/10/08 05:14:28;;;;;;;9.47;7.70;;;;;;;14.78;60.03;97019.78;5007122;28;20996;-70
2023/10/08 05:28:09;;;;;;;19.60;8.40;;;;;;;14.71;60.11;97028.94;4991237;28;20419;-69
2023/10/08 05:30:53;;;;;;;47.47;12.20;;;;;;;14.70;60.18;97027.25;4986513;28;20451;-70
2023/10/08 05:33:49;;;;;;;15.83;8.43;;;;;;;14.66;60.09;97030.13;4990952;28;20404;-70
2023/10/08 05:36:19;;;;;;;22.83;8.33;;;;;;;14.67;59.96;97037.09;4990775;28;20419;-70
2023/10/08 05:39:00;;;;;;;25.20;7.37;;;;;;;14.73;59.64;97040.28;4990485;28;20419;-70
2023/10/08 05:41:38;;;;;;;19.17;8.93;;;;;;;14.68;59.09;97031.75;4990614;28;20432;-71
2023/10/08 05:44:14;;;;;;;23.77;8.90;;;;;;;14.82;58.67;97044.25;4990538;28;21531;-69
2023/10/08 05:46:49;;;;;;;32.87;9.40;;;;;;;14.68;58.96;97042.31;4990764;28;20448;-68
2023/10/08 05:51:44;;;;;;;11.27;6.93;;;;;;;14.73;58.54;97039.44;4990681;28;20463;-72
2023/10/08 06:02:28;;;;;;;45.70;11.47;;;;;;;14.80;58.05;97048.75;4990350;28;20478;-69
2023/10/08 06:05:19;;;;;;;30.20;9.67;;;;;;;14.79;58.04;97061.13;4990329;28;20436;-69
2023/10/08 06:13:06;;;;;;;13.80;7.43;;;;;;;14.78;57.50;97062.03;4991104;28;20491;-70
2023/10/08 06:18:18;;;;;;;9.13;6.13;;;;;;;14.82;57.12;97058.31;5001707;28;20430;-70
2023/10/08 06:20:45;;;;;;;7.73;6.03;;;;;;;14.86;57.25;97053.75;5009822;28;21129;-68
2023/10/08 06:23:18;;;;;;;11.23;5.90;;;;;;;14.95;57.33;97062.97;5010364;28;20463;-69
2023/10/08 06:25:44;;;;;;;13.43;7.57;;;;;;;14.97;57.21;97069.03;5010004;28;20443;-68
2023/10/08 06:28:19;;;;;;;18.47;6.40;;;;;;;15.07;57.16;97069.44;5009647;28;20423;-69
2023/10/08 06:30:49;;;;;;;36.33;9.13;;;;;;;15.15;56.54;97070.75;5009194;28;20439;-69
2023/10/08 06:33:16;;;;;;;39.47;10.60;;;;;;;15.17;56.72;97071.53;5008751;28;20411;-68
2023/10/08 06:35:44;;;;;;;29.30;9.50;;;;;;;15.20;56.46;97075.81;5009449;28;20415;-69
2023/10/08 06:38:11;;;;;;;36.97;9.07;;;;;;;15.18;56.76;97082.97;5009286;28;20415;-70
2023/10/08 06:43:16;;;;;;;13.30;7.77;;;;;;;15.20;56.98;97095.16;5009304;28;20451;-69
2023/10/08 06:45:43;;;;;;;9.53;6.63;;;;;;;15.19;56.89;97092.63;5009861;28;20665;-70
2023/10/08 06:48:17;;;;;;;12.17;8.83;;;;;;;15.25;57.17;97102.88;5009009;28;20415;-68
2023/10/08 06:50:44;;;;;;;11.70;7.40;;;;;;;15.28;57.07;97101.84;5008689;28;20463;-70
2023/10/08 06:53:13;;;;;;;14.47;8.10;;;;;;;15.32;57.01;97096.31;5008861;28;20473;-70
2023/10/08 06:55:43;;;;;;;12.20;7.17;;;;;;;15.39;57.39;97100.34;5008873;28;20431;-70
2023/10/08 06:58:08;;;;;;;10.00;7.07;;;;;;;15.33;57.71;97090.13;5008939;28;20407;-70
2023/10/08 07:00:38;;;;;;;10.10;7.30;;;;;;;15.48;57.32;97095.53;5008479;28;21295;-69
2023/10/08 07:03:05;;;;;;;12.00;7.73;;;;;;;15.59;57.07;97098.44;5008186;28;20222;-69
2023/10/08 07:05:36;;;;;;;15.10;7.67;;;;;;;15.58;57.34;97096.75;5008586;28;20436;-68
2023/10/08 07:08:06;;;;;;;15.27;7.73;;;;;;;15.62;56.92;97093.88;5008445;28;20403;-68
2023/10/08 07:10:34;;;;;;;18.40;9.60;;;;;;;15.60;57.16;97093.09;5008095;28;20639;-69
2023/10/08 07:13:02;;;;;;;35.67;11.73;;;;;;;15.60;57.34;97092.25;5008461;28;20434;-69
2023/10/08 07:15:29;;;;;;;13.90;9.80;;;;;;;15.61;57.53;97086.00;5008848;28;20415;-68
2023/10/08 07:17:56;;;;;;;11.00;7.27;;;;;;;15.60;57.51;97084.31;5008350;28;21012;-69
2023/10/08 07:20:22;;;;;;;12.83;8.63;;;;;;;15.67;57.90;97085.69;5008542;28;20439;-68
2023/10/08 07:22:53;;;;;;;13.27;8.20;;;;;;;15.62;57.95;97078.00;5008285;28;21024;-69
2023/10/08 07:25:22;;;;;;;15.13;8.10;;;;;;;15.57;57.89;97087.13;5008362;28;20835;-69
2023/10/08 07:27:48;;;;;;;10.67;7.33;;;;;;;15.69;57.77;97086.47;5008279;28;20462;-70
2023/10/08 07:30:26;;;;;;;15.70;8.20;;;;;;;15.72;57.69;97088.97;5008099;28;20447;-69
2023/10/08 07:32:54;;;;;;;11.63;7.20;;;;;;;15.72;58.11;97085.47;5008243;28;20590;-69
2023/10/08 07:37:46;;;;;;;15.57;9.27;;;;;;;15.73;58.06;97090.69;5008091;28;20443;-70
2023/10/08 07:40:15;;;;;;;20.57;8.77;;;;;;;15.73;58.00;97093.34;5007501;28;20914;-69
2023/10/08 07:42:41;;;;;;;11.80;7.20;;;;;;;15.79;58.21;97097.44;5008311;28;20540;-69
2023/10/08 07:45:06;;;;;;;26.03;10.10;;;;;;;15.86;57.73;97097.03;5006819;28;20419;-69
2023/10/08 07:47:32;;;;;;;19.57;9.07;;;;;;;15.97;57.56;97099.09;5007784;28;20176;-69
2023/10/08 07:49:58;;;;;;;21.00;10.50;;;;;;;16.33;56.37;97098.00;5007356;28;20663;-70
2023/10/08 07:52:24;;;;;;;11.57;6.90;;;;;;;16.43;56.35;97090.41;5007960;28;20204;-69
2023/10/08 07:54:49;;;;;;;11.40;7.63;;;;;;;16.49;56.12;97082.13;5008295;28;20534;-71
2023/10/08 07:57:25;;;;;;;13.93;8.07;;;;;;;16.42;55.98;97086.06;5008237;28;20180;-69
2023/10/08 07:59:54;;;;;;;18.37;8.20;;;;;;;16.32;56.39;97084.84;5007737;28;20178;-70
2023/10/08 08:02:23;;;;;;;17.40;7.60;;;;;;;16.34;56.59;97090.91;5007771;28;20870;-70
2023/10/08 08:04:53;;;;;;;11.03;7.57;;;;;;;16.42;56.38;97089.56;5008536;28;20407;-69
2023/10/08 08:07:22;;;;;;;14.50;7.90;;;;;;;16.35;56.71;97085.53;5008486;28;20424;-71
2023/10/08 08:09:58;;;;;;;17.07;8.10;;;;;;;16.34;56.76;97096.22;5007499;28;20462;-69
2023/10/08 08:12:32;;;;;;;29.40;8.57;;;;;;;16.34;57.20;97094.41;5007836;28;20422;-71
2023/10/08 08:14:58;;;;;;;14.50;8.10;;;;;;;16.42;56.34;97088.69;5007749;28;20420;-71
2023/10/08 08:17:24;;;;;;;13.47;8.17;;;;;;;16.38;56.56;97093.31;5008031;28;20446;-70
2023/10/08 08:19:51;;;;;;;20.63;8.37;;;;;;;16.35;56.64;97093.50;5007658;28;20657;-71
2023/10/08 08:22:21;;;;;;;16.57;7.53;;;;;;;16.39;56.54;97089.69;5007918;28;20461;-70
2023/10/08 08:25:04;;;;;;;12.50;8.10;;;;;;;16.45;56.33;97086.72;5007620;28;20474;-70
2023/10/08 08:27:32;;;;;;;14.97;8.20;;;;;;;16.45;56.62;97083.22;5007682;28;20468;-71
2023/10/08 08:30:09;;;;;;;22.97;8.37;;;;;;;16.45;56.71;97080.56;5006930;28;20430;-70
2023/10/08 08:32:44;;;;;;;16.13;7.67;;;;;;;16.47;56.43;97078.69;5007077;28;20453;-70
2023/10/08 08:35:11;;;;;;;22.53;7.67;;;;;;;16.45;56.18;97070.81;5007223;28;20898;-70
2023/10/08 08:37:40;;;;;;;27.60;8.37;;;;;;;16.45;56.79;97070.81;5007168;28;20419;-70
2023/10/08 08:40:17;;;;;;;29.50;8.70;;;;;;;16.56;56.42;97074.66;5006469;28;20995;-69
2023/10/08 08:42:46;;;;;;;16.93;7.00;;;;;;;16.58;56.50;97065.66;5006998;28;20462;-70
2023/10/08 08:45:17;;;;;;;14.17;7.70;;;;;;;16.52;56.82;97066.88;5007063;28;20415;-71
2023/10/08 08:47:44;;;;;;;16.90;7.97;;;;;;;16.56;56.46;97072.00;5006625;28;20411;-70
2023/10/08 08:50:10;;;;;;;10.20;6.60;;;;;;;16.63;56.49;97083.97;5006548;28;20439;-70
2023/10/08 08:52:39;;;;;;;14.47;7.67;;;;;;;16.71;56.77;97079.09;5007048;28;20407;-71
2023/10/08 08:55:14;;;;;;;15.30;7.73;;;;;;;16.83;56.26;97093.47;5007085;28;20562;-70
2023/10/08 08:57:59;;;;;;;9.47;6.47;;;;;;;17.12;55.63;97094.41;5010482;28;20417;-71
2023/10/08 09:00:29;;;;;;;14.30;7.57;;;;;;;17.25;55.53;97091.88;5010744;28;20482;-69
2023/10/08 09:02:55;;;;;;;16.30;8.97;;;;;;;17.48;54.76;97083.41;5010851;28;20458;-70
2023/10/08 09:05:25;;;;;;;13.73;7.07;;;;;;;17.68;54.57;97086.63;5010756;28;20916;-70
2023/10/08 09:08:03;;;;;;;14.40;7.27;;;;;;;17.83;54.13;97098.97;5010748;28;20279;-70
2023/10/08 09:10:29;;;;;;;35.23;9.90;;;;;;;17.84;54.11;97095.38;5010314;28;20477;-70
2023/10/08 09:12:58;;;;;;;9.63;6.30;;;;;;;18.04;53.55;97093.28;5010712;28;20766;-69
2023/10/08 09:15:27;;;;;;;10.00;6.10;;;;;;;18.60;51.77;97097.63;5010437;28;20203;-69
2023/10/08 09:17:54;;;;;;;16.50;7.40;;;;;;;19.02;50.12;97086.97;5010800;28;20418;-67
2023/10/08 09:20:20;;;;;;;12.90;6.87;;;;;;;19.07;49.94;97090.16;5010280;28;20430;-70
2023/10/08 09:23:07;;;;;;;13.47;6.50;;;;;;;19.24;48.94;97081.88;5010354;28;20984;-70
2023/10/08 09:25:32;;;;;;;20.83;6.17;;;;;;;19.51;48.23;97088.09;5010261;28;20463;-69
2023/10/08 09:27:58;;;;;;;12.67;7.30;;;;;;;19.56;48.05;97096.59;5010159;28;20418;-69
2023/10/08 09:30:25;;;;;;;14.03;6.87;;;;;;;19.56;47.82;97092.16;5010025;28;20235;-70
2023/10/08 09:32:51;;;;;;;11.90;5.30;;;;;;;19.52;47.72;97106.63;5010438;28;20172;-69
2023/10/08 09:35:18;;;;;;;15.47;6.50;;;;;;;19.40;48.16;97103.00;5010108;28;20971;-69
2023/10/08 09:37:44;;;;;;;54.50;8.53;;;;;;;19.33;48.39;97115.00;5010308;28;20606;-70
2023/10/08 09:40:11;;;;;;;12.73;6.00;;;;;;;19.21;48.64;97124.69;5009861;28;20434;-68
2023/10/08 09:42:42;;;;;;;13.80;6.50;;;;;;;19.22;49.15;97129.03;5009818;28;20453;-70
2023/10/08 09:45:08;;;;;;;9.80;5.10;;;;;;;19.31;49.05;97127.56;5010267;28;20477;-70
2023/10/08 09:47:38;;;;;;;18.13;6.30;;;;;;;19.51;48.61;97131.53;5010525;28;20412;-69
2023/10/08 09:50:08;;;;;;;13.67;6.07;;;;;;;19.71;48.39;97124.88;5009936;28;20202;-70
2023/10/08 09:53:22;;;;;;;10.13;4.97;;;;;;;19.93;48.00;97129.56;5010440;28;20494;-69
2023/10/08 09:55:57;;;;;;;16.20;5.50;;;;;;;20.04;47.27;97134.16;5010193;28;20418;-69
2023/10/08 09:58:24;;;;;;;24.90;6.93;;;;;;;19.98;47.45;97138.06;5010389;28;20701;-69
2023/10/08 10:00:51;;;;;;;18.20;6.33;;;;;;;19.92;47.47;97135.84;5010029;28;20439;-68
2023/10/08 10:03:18;;;;;;;10.63;6.03;;;;;;;19.79;47.52;97140.31;5009931;28;20454;-69
2023/10/08 10:05:44;;;;;;;30.70;8.13;;;;;;;19.66;47.97;97137.63;5010138;28;20486;-70
2023/10/08 10:08:10;;;;;;;17.30;7.30;;;;;;;19.55;48.10;97142.84;5009114;28;20976;-70
2023/10/08 10:10:43;;;;;;;20.30;7.67;;;;;;;19.49;48.51;97146.78;5009413;28;20231;-70
2023/10/08 10:13:11;;;;;;;16.67;6.33;;;;;;;19.38;48.86;97144.81;5009619;28;20763;-70
2023/10/08 10:15:37;;;;;;;14.57;7.17;;;;;;;19.34;49.40;97129.16;5009473;28;20410;-68
2023/10/08 10:18:29;;;;;;;22.63;6.20;;;;;;;19.25;49.36;97138.63;5009292;28;20505;-71
2023/10/08 10:21:00;;;;;;;10.30;5.40;;;;;;;19.18;49.69;97140.84;5005449;28;20450;-68
2023/10/08 10:23:45;;;;;;;13.83;5.60;;;;;;;19.17;49.47;97136.47;5009145;28;20465;-69
2023/10/08 10:26:34;;;;;;;18.90;5.50;;;;;;;19.08;49.99;97141.56;5009624;28;20476;-69
2023/10/08 10:29:14;;;;;;;18.57;6.60;;;;;;;19.04;50.46;97136.44;5009050;28;20978;-69
2023/10/08 10:31:49;;;;;;;11.70;5.00;;;;;;;19.01;50.82;97141.94;5009244;28;20423;-70
2023/10/08 10:34:27;;;;;;;11.23;5.13;;;;;;;18.97;51.21;97132.50;5009403;28;20465;-70
2023/10/08 10:36:58;;;;;;;24.23;5.87;;;;;;;18.92;51.57;97128.41;5009370;28;20402;-70
2023/10/08 10:39:33;;;;;;;20.83;8.70;;;;;;;18.88;51.99;97126.94;5008964;28;20502;-68
2023/10/08 10:42:01;;;;;;;12.30;5.90;;;;;;;18.88;52.07;97114.47;5007678;28;20410;-71
2023/10/08 10:44:30;;;;;;;13.07;6.13;;;;;;;18.82;52.21;97118.38;5008749;28;20414;-70
2023/10/08 10:47:42;;;;;;;29.87;6.70;;;;;;;18.82;52.22;97117.53;5007650;28;20411;-69
2023/10/08 10:49:53;;;;;;;22.83;7.20;;;;;;;18.82;52.54;97121.03;5006272;28;20544;-68
2023/10/08 10:57:42;;;;;;;13.13;5.87;;;;;;;18.85;53.02;97120.00;5009181;28;20828;-70
2023/10/08 11:02:56;;;;;;;12.90;5.67;;;;;;;18.94;53.09;97129.16;5009207;28;20465;-69
2023/10/08 11:05:28;;;;;;;28.57;7.53;;;;;;;19.00;52.91;97129.63;5010608;28;20441;-70
2023/10/08 11:08:04;;;;;;;11.40;5.40;;;;;;;19.04;52.85;97133.78;5008929;28;20419;-70
2023/10/08 11:10:34;;;;;;;13.53;6.57;;;;;;;19.07;53.06;97130.06;5008194;28;20450;-70
2023/10/08 11:13:01;;;;;;;20.60;7.03;;;;;;;19.11;52.86;97128.03;5008462;28;20416;-69
2023/10/08 11:15:40;;;;;;;19.90;6.73;;;;;;;19.10;52.73;97129.00;5008399;28;20493;-70
2023/10/08 11:18:19;;;;;;;30.03;7.57;;;;;;;19.16;52.75;97131.28;5007102;28;20865;-70
2023/10/08 11:20:45;;;;;;;15.10;6.80;;;;;;;19.20;52.63;97128.28;5008104;28;21067;-68
2023/10/08 11:23:28;;;;;;;31.97;7.27;;;;;;;19.31;52.41;97124.91;5008534;28;20880;-69
2023/10/08 11:26:02;;;;;;;23.30;6.93;;;;;;;19.38;52.14;97128.00;5008299;28;20494;-69
2023/10/08 11:28:47;;;;;;;21.13;6.23;;;;;;;19.39;52.21;97127.03;5008470;28;21114;-70
2023/10/08 11:31:14;;;;;;;18.97;6.50;;;;;;;19.48;51.94;97126.41;5008565;28;20426;-70
2023/10/08 11:33:53;;;;;;;23.97;6.30;;;;;;;19.57;51.88;97116.97;5008731;28;20435;-68
2023/10/08 11:36:25;;;;;;;12.27;5.60;;;;;;;19.62;51.84;97115.69;5008309;28;20422;-69
2023/10/08 11:38:53;;;;;;;16.10;6.27;;;;;;;19.71;51.42;97116.91;5008070;28;20503;-68
2023/10/08 11:41:21;;;;;;;11.00;5.83;;;;;;;19.73;51.28;97120.31;5008178;28;20443;-70
2023/10/08 11:43:57;;;;;;;10.20;6.47;;;;;;;19.74;51.07;97111.34;5007960;28;20458;-69
2023/10/08 11:46:33;;;;;;;10.43;5.30;;;;;;;19.79;51.05;97133.19;5008365;28;20403;-69
2023/10/08 11:49:04;;;;;;;8.30;4.80;;;;;;;19.78;51.46;97120.84;5007571;28;20933;-70
2023/10/08 11:51:34;;;;;;;18.70;6.80;;;;;;;19.77;51.01;97127.13;5007917;28;21090;-69
2023/10/08 11:54:06;;;;;;;17.70;6.97;;;;;;;19.76;51.13;97122.75;5007776;28;20403;-69
2023/10/08 11:56:33;;;;;;;17.67;7.50;;;;;;;19.79;51.58;97119.00;5007865;28;20953;-69
2023/10/08 11:59:05;;;;;;;14.47;7.10;;;;;;;19.77;51.70;97119.16;5007269;28;20415;-69
2023/10/08 12:01:35;;;;;;;11.03;6.03;;;;;;;19.77;51.69;97113.81;5007350;28;20795;-70
2023/10/08 12:04:00;;;;;;;12.03;5.50;;;;;;;19.79;51.70;97111.03;5007329;28;21330;-70
2023/10/08 12:06:29;;;;;;;11.47;6.13;;;;;;;19.80;51.69;97105.59;5007180;28;20431;-69
2023/10/08 12:08:58;;;;;;;16.77;7.00;;;;;;;19.81;51.80;97112.63;5007043;28;20208;-69
2023/10/08 12:11:30;;;;;;;16.73;5.90;;;;;;;19.85;51.69;97103.47;5007411;28;20443;-70
2023/10/08 12:13:58;;;;;;;20.57;6.50;;;;;;;19.90;51.76;97110.28;5007316;28;20498;-67
2023/10/08 12:16:26;;;;;;;14.27;6.30;;;;;;;19.94;51.84;97107.31;5007152;28;20411;-71
2023/10/08 12:18:58;;;;;;;13.97;6.17;;;;;;;19.96;51.70;97108.06;5006872;28;20423;-69
2023/10/08 12:21:29;;;;;;;11.80;5.80;;;;;;;19.99;51.80;97107.81;5007298;28;20446;-70
2023/10/08 12:23:55;;;;;;;16.20;6.70;;;;;;;20.04;51.93;97105.69;5007200;28;20490;-70
2023/10/08 12:26:21;;;;;;;31.27;7.40;;;;;;;20.09;51.97;97105.34;5007501;28;20407;-69
2023/10/08 12:28:50;;;;;;;20.93;5.67;;;;;;;20.09;52.01;97108.88;5006857;28;20415;-71
2023/10/08 12:31:22;;;;;;;15.43;6.63;;;;;;;20.16;52.00;97095.13;5006552;28;20290;-69
2023/10/08 12:33:51;;;;;;;23.17;6.80;;;;;;;20.17;52.18;97092.31;5007093;28;20403;-70
2023/10/08 12:36:16;;;;;;;11.77;5.00;;;;;;;20.15;52.04;97086.28;5006955;28;20415;-69
2023/10/08 12:38:43;;;;;;;10.40;5.30;;;;;;;20.13;51.98;97090.03;5006589;28;20994;-69
2023/10/08 12:41:12;;;;;;;16.43;5.83;;;;;;;20.15;52.17;97088.06;5007058;28;20214;-69
2023/10/08 12:43:44;;;;;;;14.87;6.53;;;;;;;20.11;52.30;97075.94;5006829;28;20458;-68
2023/10/08 12:46:18;;;;;;;18.30;5.40;;;;;;;20.12;52.46;97080.31;5006854;28;20411;-67
2023/10/08 12:48:47;;;;;;;19.27;5.87;;;;;;;20.15;52.56;97082.75;5006580;28;20414;-69